sensor_id;sensor_type;location;lat;lon;timestamp;P1;durP1;ratioP1;P2;durP2;ratioP2
7316;SDS011;3699;51.462;6.696;2022-07-29T00:01:26;5.47;;;2.20;;
7316;SDS011;3699;51.462;6.696;2022-07-29T00:03:54;5.37;;;2.00;;
7316;SDS011;3699;51.462;6.696;2022-07-29T00:06:21;3.43;;;2.00;;
7316;SDS011;3699;51.462;6.696;2022-07-29T00:08:47;3.13;;;1.93;;
7316;SDS011;3699;51.462;6.696;2022-07-29T00:11:14;3.80;;;2.27;;
7316;SDS011;3699;51.462;6.696;2022-07-29T00:13:41;6.53;;;2.23;;
7316;SDS011;3699;51.462;6.696;2022-07-29T00:16:08;4.50;;;2.00;;
7316;SDS011;3699;51.462;6.696;2022-07-29T00:18:35;3.27;;;2.00;;
7316;SDS011;3699;51.462;6.696;2022-07-29T00:21:03;6.77;;;2.40;;
7316;SDS011;3699;51.462;6.696;2022-07-29T00:23:30;4.07;;;2.03;;
7316;SDS011;3699;51.462;6.696;2022-07-29T00:25:57;6.47;;;3.10;;
7316;SDS011;3699;51.462;6.696;2022-07-29T00:28:24;4.30;;;2.43;;
7316;SDS011;3699;51.462;6.696;2022-07-29T00:30:50;5.53;;;2.20;;
7316;SDS011;3699;51.462;6.696;2022-07-29T00:33:17;6.03;;;2.07;;
7316;SDS011;3699;51.462;6.696;2022-07-29T00:35:44;2.60;;;1.90;;
7316;SDS011;3699;51.462;6.696;2022-07-29T00:38:12;7.13;;;2.10;;
7316;SDS011;3699;51.462;6.696;2022-07-29T00:40:42;2.17;;;1.77;;
7316;SDS011;3699;51.462;6.696;2022-07-29T00:43:09;5.33;;;2.30;;
7316;SDS011;3699;51.462;6.696;2022-07-29T00:45:37;3.57;;;1.83;;
7316;SDS011;3699;51.462;6.696;2022-07-29T00:48:04;5.80;;;1.90;;
7316;SDS011;3699;51.462;6.696;2022-07-29T00:50:32;3.43;;;2.10;;
7316;SDS011;3699;51.462;6.696;2022-07-29T00:52:59;6.87;;;2.40;;
7316;SDS011;3699;51.462;6.696;2022-07-29T00:55:28;3.57;;;2.10;;
7316;SDS011;3699;51.462;6.696;2022-07-29T00:57:55;4.63;;;1.90;;
7316;SDS011;3699;51.462;6.696;2022-07-29T01:00:25;3.00;;;2.17;;
7316;SDS011;3699;51.462;6.696;2022-07-29T01:02:53;3.67;;;2.10;;
7316;SDS011;3699;51.462;6.696;2022-07-29T01:05:21;7.13;;;2.83;;
7316;SDS011;3699;51.462;6.696;2022-07-29T01:07:49;4.00;;;2.03;;
7316;SDS011;3699;51.462;6.696;2022-07-29T01:10:19;6.37;;;2.20;;
7316;SDS011;3699;51.462;6.696;2022-07-29T01:12:49;4.07;;;2.20;;
7316;SDS011;3699;51.462;6.696;2022-07-29T01:15:18;7.27;;;2.17;;
7316;SDS011;3699;51.462;6.696;2022-07-29T01:17:46;5.93;;;2.03;;
7316;SDS011;3699;51.462;6.696;2022-07-29T01:20:20;4.23;;;2.00;;
7316;SDS011;3699;51.462;6.696;2022-07-29T01:23:01;3.43;;;2.23;;
7316;SDS011;3699;51.462;6.696;2022-07-29T01:26:01;4.33;;;1.97;;
7316;SDS011;3699;51.462;6.696;2022-07-29T01:28:56;7.67;;;2.77;;
7316;SDS011;3699;51.462;6.696;2022-07-29T01:31:28;8.73;;;2.10;;
7316;SDS011;3699;51.462;6.696;2022-07-29T01:34:01;10.47;;;2.40;;
7316;SDS011;3699;51.462;6.696;2022-07-29T01:36:31;5.03;;;2.70;;
7316;SDS011;3699;51.462;6.696;2022-07-29T01:39:03;7.97;;;2.10;;
7316;SDS011;3699;51.462;6.696;2022-07-29T01:41:35;3.00;;;2.20;;
7316;SDS011;3699;51.462;6.696;2022-07-29T01:44:10;5.57;;;2.40;;
7316;SDS011;3699;51.462;6.696;2022-07-29T01:46:39;4.70;;;2.17;;
7316;SDS011;3699;51.462;6.696;2022-07-29T01:49:13;5.70;;;2.13;;
7316;SDS011;3699;51.462;6.696;2022-07-29T01:51:44;6.60;;;2.53;;
7316;SDS011;3699;51.462;6.696;2022-07-29T01:54:16;4.60;;;2.40;;
7316;SDS011;3699;51.462;6.696;2022-07-29T01:56:47;6.60;;;2.20;;
7316;SDS011;3699;51.462;6.696;2022-07-29T01:59:18;6.13;;;2.30;;
7316;SDS011;3699;51.462;6.696;2022-07-29T02:01:48;3.77;;;2.67;;
7316;SDS011;3699;51.462;6.696;2022-07-29T02:04:18;7.33;;;2.33;;
7316;SDS011;3699;51.462;6.696;2022-07-29T02:06:46;4.43;;;1.90;;
7316;SDS011;3699;51.462;6.696;2022-07-29T02:09:16;4.33;;;2.20;;
7316;SDS011;3699;51.462;6.696;2022-07-29T02:11:47;3.20;;;2.30;;
7316;SDS011;3699;51.462;6.696;2022-07-29T02:14:19;5.47;;;2.33;;
7316;SDS011;3699;51.462;6.696;2022-07-29T02:16:48;7.23;;;2.50;;
7316;SDS011;3699;51.462;6.696;2022-07-29T02:19:18;3.90;;;2.20;;
7316;SDS011;3699;51.462;6.696;2022-07-29T02:21:48;3.83;;;2.00;;
7316;SDS011;3699;51.462;6.696;2022-07-29T02:24:17;3.73;;;2.47;;
7316;SDS011;3699;51.462;6.696;2022-07-29T02:26:45;9.27;;;3.03;;
7316;SDS011;3699;51.462;6.696;2022-07-29T02:29:13;7.53;;;3.67;;
7316;SDS011;3699;51.462;6.696;2022-07-29T02:31:43;5.63;;;2.57;;
7316;SDS011;3699;51.462;6.696;2022-07-29T02:34:12;4.43;;;1.93;;
7316;SDS011;3699;51.462;6.696;2022-07-29T02:36:41;7.83;;;2.60;;
7316;SDS011;3699;51.462;6.696;2022-07-29T02:39:10;3.60;;;2.30;;
7316;SDS011;3699;51.462;6.696;2022-07-29T02:41:40;4.90;;;2.07;;
7316;SDS011;3699;51.462;6.696;2022-07-29T02:44:10;12.07;;;2.50;;
7316;SDS011;3699;51.462;6.696;2022-07-29T02:46:41;3.83;;;2.33;;
7316;SDS011;3699;51.462;6.696;2022-07-29T02:49:16;6.30;;;2.47;;
7316;SDS011;3699;51.462;6.696;2022-07-29T02:51:58;7.03;;;2.20;;
7316;SDS011;3699;51.462;6.696;2022-07-29T02:54:29;4.00;;;1.90;;
7316;SDS011;3699;51.462;6.696;2022-07-29T02:57:00;2.93;;;1.90;;
7316;SDS011;3699;51.462;6.696;2022-07-29T02:59:35;2.60;;;1.70;;
7316;SDS011;3699;51.462;6.696;2022-07-29T03:02:05;4.73;;;2.20;;
7316;SDS011;3699;51.462;6.696;2022-07-29T03:04:34;10.50;;;1.90;;
7316;SDS011;3699;51.462;6.696;2022-07-29T03:07:03;2.00;;;1.80;;
7316;SDS011;3699;51.462;6.696;2022-07-29T03:09:31;4.30;;;2.10;;
7316;SDS011;3699;51.462;6.696;2022-07-29T03:11:59;4.73;;;2.10;;
7316;SDS011;3699;51.462;6.696;2022-07-29T03:14:27;6.13;;;2.40;;
7316;SDS011;3699;51.462;6.696;2022-07-29T03:16:55;5.43;;;2.20;;
7316;SDS011;3699;51.462;6.696;2022-07-29T03:19:24;3.40;;;2.07;;
7316;SDS011;3699;51.462;6.696;2022-07-29T03:21:53;5.40;;;2.20;;
7316;SDS011;3699;51.462;6.696;2022-07-29T03:24:26;3.00;;;2.27;;
7316;SDS011;3699;51.462;6.696;2022-07-29T03:26:54;3.40;;;2.00;;
7316;SDS011;3699;51.462;6.696;2022-07-29T03:29:22;4.80;;;2.13;;
7316;SDS011;3699;51.462;6.696;2022-07-29T03:31:49;5.37;;;2.40;;
7316;SDS011;3699;51.462;6.696;2022-07-29T03:34:16;3.17;;;2.13;;
7316;SDS011;3699;51.462;6.696;2022-07-29T03:36:44;3.37;;;1.90;;
7316;SDS011;3699;51.462;6.696;2022-07-29T03:39:11;3.20;;;2.10;;
7316;SDS011;3699;51.462;6.696;2022-07-29T03:41:42;5.17;;;2.10;;
7316;SDS011;3699;51.462;6.696;2022-07-29T03:44:12;3.07;;;2.07;;
7316;SDS011;3699;51.462;6.696;2022-07-29T03:46:41;3.10;;;2.10;;
7316;SDS011;3699;51.462;6.696;2022-07-29T03:49:09;3.67;;;2.00;;
7316;SDS011;3699;51.462;6.696;2022-07-29T03:51:38;6.00;;;2.53;;
7316;SDS011;3699;51.462;6.696;2022-07-29T03:54:07;2.83;;;2.00;;
7316;SDS011;3699;51.462;6.696;2022-07-29T03:56:34;3.93;;;2.07;;
7316;SDS011;3699;51.462;6.696;2022-07-29T03:59:05;3.77;;;2.00;;
7316;SDS011;3699;51.462;6.696;2022-07-29T04:01:33;5.07;;;2.07;;
7316;SDS011;3699;51.462;6.696;2022-07-29T04:04:01;6.40;;;1.97;;
7316;SDS011;3699;51.462;6.696;2022-07-29T04:06:37;2.23;;;2.00;;
7316;SDS011;3699;51.462;6.696;2022-07-29T04:09:04;4.97;;;2.30;;
7316;SDS011;3699;51.462;6.696;2022-07-29T04:11:33;4.60;;;2.23;;
7316;SDS011;3699;51.462;6.696;2022-07-29T04:14:01;5.60;;;2.30;;
7316;SDS011;3699;51.462;6.696;2022-07-29T04:16:28;5.10;;;2.83;;
7316;SDS011;3699;51.462;6.696;2022-07-29T04:18:55;2.60;;;2.40;;
7316;SDS011;3699;51.462;6.696;2022-07-29T04:21:22;4.97;;;2.50;;
7316;SDS011;3699;51.462;6.696;2022-07-29T04:23:49;9.23;;;3.10;;
7316;SDS011;3699;51.462;6.696;2022-07-29T04:26:17;5.47;;;3.10;;
7316;SDS011;3699;51.462;6.696;2022-07-29T04:28:45;4.77;;;2.90;;
7316;SDS011;3699;51.462;6.696;2022-07-29T04:31:12;5.70;;;2.90;;
7316;SDS011;3699;51.462;6.696;2022-07-29T04:33:39;11.90;;;2.90;;
7316;SDS011;3699;51.462;6.696;2022-07-29T04:36:06;5.23;;;3.03;;
7316;SDS011;3699;51.462;6.696;2022-07-29T04:38:33;4.67;;;3.37;;
7316;SDS011;3699;51.462;6.696;2022-07-29T04:41:00;5.80;;;3.20;;
7316;SDS011;3699;51.462;6.696;2022-07-29T04:43:28;5.80;;;2.87;;
7316;SDS011;3699;51.462;6.696;2022-07-29T04:45:55;10.43;;;4.27;;
7316;SDS011;3699;51.462;6.696;2022-07-29T04:48:22;5.03;;;3.33;;
7316;SDS011;3699;51.462;6.696;2022-07-29T04:50:49;9.37;;;3.40;;
7316;SDS011;3699;51.462;6.696;2022-07-29T04:53:15;4.80;;;3.50;;
7316;SDS011;3699;51.462;6.696;2022-07-29T04:55:42;4.63;;;2.90;;
7316;SDS011;3699;51.462;6.696;2022-07-29T04:58:09;3.20;;;2.90;;
7316;SDS011;3699;51.462;6.696;2022-07-29T05:00:38;4.20;;;3.03;;
7316;SDS011;3699;51.462;6.696;2022-07-29T05:03:05;5.27;;;3.20;;
7316;SDS011;3699;51.462;6.696;2022-07-29T05:05:32;5.23;;;3.00;;
7316;SDS011;3699;51.462;6.696;2022-07-29T05:07:59;6.87;;;3.10;;
7316;SDS011;3699;51.462;6.696;2022-07-29T05:10:26;3.83;;;3.40;;
7316;SDS011;3699;51.462;6.696;2022-07-29T05:12:53;5.73;;;3.07;;
7316;SDS011;3699;51.462;6.696;2022-07-29T05:15:20;6.40;;;3.60;;
7316;SDS011;3699;51.462;6.696;2022-07-29T05:17:48;8.80;;;3.50;;
7316;SDS011;3699;51.462;6.696;2022-07-29T05:20:15;6.37;;;4.73;;
7316;SDS011;3699;51.462;6.696;2022-07-29T05:22:43;7.00;;;3.70;;
7316;SDS011;3699;51.462;6.696;2022-07-29T05:25:10;8.53;;;4.37;;
7316;SDS011;3699;51.462;6.696;2022-07-29T05:27:37;8.73;;;4.60;;
7316;SDS011;3699;51.462;6.696;2022-07-29T05:30:04;9.27;;;5.10;;
7316;SDS011;3699;51.462;6.696;2022-07-29T05:32:33;11.63;;;4.80;;
7316;SDS011;3699;51.462;6.696;2022-07-29T05:35:01;9.53;;;5.23;;
7316;SDS011;3699;51.462;6.696;2022-07-29T05:37:28;13.37;;;5.47;;
7316;SDS011;3699;51.462;6.696;2022-07-29T05:39:55;7.20;;;4.50;;
7316;SDS011;3699;51.462;6.696;2022-07-29T05:42:22;6.93;;;3.77;;
7316;SDS011;3699;51.462;6.696;2022-07-29T05:44:49;6.33;;;3.47;;
7316;SDS011;3699;51.462;6.696;2022-07-29T05:47:16;6.87;;;3.40;;
7316;SDS011;3699;51.462;6.696;2022-07-29T05:49:43;8.23;;;3.47;;
7316;SDS011;3699;51.462;6.696;2022-07-29T05:52:11;4.80;;;2.87;;
7316;SDS011;3699;51.462;6.696;2022-07-29T05:54:39;8.80;;;3.77;;
7316;SDS011;3699;51.462;6.696;2022-07-29T05:57:06;5.10;;;3.77;;
7316;SDS011;3699;51.462;6.696;2022-07-29T05:59:35;4.80;;;3.67;;
7316;SDS011;3699;51.462;6.696;2022-07-29T06:02:02;4.77;;;3.77;;
7316;SDS011;3699;51.462;6.696;2022-07-29T06:04:30;5.67;;;3.60;;
7316;SDS011;3699;51.462;6.696;2022-07-29T06:06:56;6.73;;;3.50;;
7316;SDS011;3699;51.462;6.696;2022-07-29T06:09:25;7.33;;;3.37;;
7316;SDS011;3699;51.462;6.696;2022-07-29T06:11:52;6.43;;;3.73;;
7316;SDS011;3699;51.462;6.696;2022-07-29T06:14:18;11.20;;;4.23;;
7316;SDS011;3699;51.462;6.696;2022-07-29T06:16:45;12.40;;;5.40;;
7316;SDS011;3699;51.462;6.696;2022-07-29T06:19:12;10.30;;;4.37;;
7316;SDS011;3699;51.462;6.696;2022-07-29T06:21:41;17.17;;;7.20;;
7316;SDS011;3699;51.462;6.696;2022-07-29T06:24:08;20.67;;;8.10;;
7316;SDS011;3699;51.462;6.696;2022-07-29T06:26:38;16.10;;;8.43;;
7316;SDS011;3699;51.462;6.696;2022-07-29T06:29:05;14.10;;;9.10;;
7316;SDS011;3699;51.462;6.696;2022-07-29T06:31:32;17.03;;;9.07;;
7316;SDS011;3699;51.462;6.696;2022-07-29T06:33:59;20.67;;;8.90;;
7316;SDS011;3699;51.462;6.696;2022-07-29T06:36:26;24.37;;;8.30;;
7316;SDS011;3699;51.462;6.696;2022-07-29T06:38:53;17.97;;;8.83;;
7316;SDS011;3699;51.462;6.696;2022-07-29T06:41:19;16.87;;;9.03;;
7316;SDS011;3699;51.462;6.696;2022-07-29T06:43:49;22.87;;;11.30;;
7316;SDS011;3699;51.462;6.696;2022-07-29T06:46:17;16.27;;;8.13;;
7316;SDS011;3699;51.462;6.696;2022-07-29T06:48:44;8.27;;;5.20;;
7316;SDS011;3699;51.462;6.696;2022-07-29T06:51:12;11.43;;;4.43;;
7316;SDS011;3699;51.462;6.696;2022-07-29T06:53:39;5.40;;;4.40;;
7316;SDS011;3699;51.462;6.696;2022-07-29T06:56:07;7.57;;;3.70;;
7316;SDS011;3699;51.462;6.696;2022-07-29T06:58:34;8.00;;;3.50;;
7316;SDS011;3699;51.462;6.696;2022-07-29T07:01:03;6.40;;;4.17;;
7316;SDS011;3699;51.462;6.696;2022-07-29T07:03:32;7.73;;;3.60;;
7316;SDS011;3699;51.462;6.696;2022-07-29T07:05:59;4.47;;;3.30;;
7316;SDS011;3699;51.462;6.696;2022-07-29T07:08:28;5.53;;;3.50;;
7316;SDS011;3699;51.462;6.696;2022-07-29T07:10:54;4.43;;;3.70;;
7316;SDS011;3699;51.462;6.696;2022-07-29T07:13:22;7.27;;;3.97;;
7316;SDS011;3699;51.462;6.696;2022-07-29T07:15:49;4.40;;;3.53;;
7316;SDS011;3699;51.462;6.696;2022-07-29T07:18:18;11.40;;;3.83;;
7316;SDS011;3699;51.462;6.696;2022-07-29T07:20:45;6.93;;;3.70;;
7316;SDS011;3699;51.462;6.696;2022-07-29T07:23:12;8.73;;;4.97;;
7316;SDS011;3699;51.462;6.696;2022-07-29T07:25:39;5.30;;;3.80;;
7316;SDS011;3699;51.462;6.696;2022-07-29T07:28:07;7.83;;;5.20;;
7316;SDS011;3699;51.462;6.696;2022-07-29T07:30:34;8.10;;;5.03;;
7316;SDS011;3699;51.462;6.696;2022-07-29T07:33:00;10.57;;;5.30;;
7316;SDS011;3699;51.462;6.696;2022-07-29T07:35:29;9.80;;;5.50;;
7316;SDS011;3699;51.462;6.696;2022-07-29T07:37:56;10.67;;;5.47;;
7316;SDS011;3699;51.462;6.696;2022-07-29T07:40:23;10.53;;;5.17;;
7316;SDS011;3699;51.462;6.696;2022-07-29T07:42:51;9.17;;;5.57;;
7316;SDS011;3699;51.462;6.696;2022-07-29T07:45:18;9.47;;;5.13;;
7316;SDS011;3699;51.462;6.696;2022-07-29T07:47:45;12.43;;;5.60;;
7316;SDS011;3699;51.462;6.696;2022-07-29T07:50:12;10.57;;;5.33;;
7316;SDS011;3699;51.462;6.696;2022-07-29T07:52:50;6.77;;;4.47;;
7316;SDS011;3699;51.462;6.696;2022-07-29T07:55:18;7.13;;;4.87;;
7316;SDS011;3699;51.462;6.696;2022-07-29T07:57:45;8.27;;;4.43;;
7316;SDS011;3699;51.462;6.696;2022-07-29T08:00:14;8.30;;;5.17;;
7316;SDS011;3699;51.462;6.696;2022-07-29T08:02:42;5.83;;;5.07;;
7316;SDS011;3699;51.462;6.696;2022-07-29T08:05:10;5.87;;;4.70;;
7316;SDS011;3699;51.462;6.696;2022-07-29T08:07:41;5.23;;;4.37;;
7316;SDS011;3699;51.462;6.696;2022-07-29T08:10:09;4.87;;;4.33;;
7316;SDS011;3699;51.462;6.696;2022-07-29T08:15:07;8.73;;;5.10;;
7316;SDS011;3699;51.462;6.696;2022-07-29T08:17:35;8.83;;;5.57;;
7316;SDS011;3699;51.462;6.696;2022-07-29T08:20:02;10.33;;;5.93;;
7316;SDS011;3699;51.462;6.696;2022-07-29T08:22:29;7.97;;;5.60;;
7316;SDS011;3699;51.462;6.696;2022-07-29T08:24:56;11.23;;;5.10;;
7316;SDS011;3699;51.462;6.696;2022-07-29T08:27:24;9.33;;;5.40;;
7316;SDS011;3699;51.462;6.696;2022-07-29T08:29:53;7.80;;;5.83;;
7316;SDS011;3699;51.462;6.696;2022-07-29T08:32:20;7.13;;;5.67;;
7316;SDS011;3699;51.462;6.696;2022-07-29T08:34:48;8.37;;;5.43;;
7316;SDS011;3699;51.462;6.696;2022-07-29T08:37:14;10.13;;;6.37;;
7316;SDS011;3699;51.462;6.696;2022-07-29T08:39:41;7.90;;;5.93;;
7316;SDS011;3699;51.462;6.696;2022-07-29T08:42:08;6.40;;;5.10;;
7316;SDS011;3699;51.462;6.696;2022-07-29T08:44:38;6.33;;;5.40;;
7316;SDS011;3699;51.462;6.696;2022-07-29T08:47:05;10.80;;;6.03;;
7316;SDS011;3699;51.462;6.696;2022-07-29T08:49:32;10.37;;;5.40;;
7316;SDS011;3699;51.462;6.696;2022-07-29T08:52:00;8.23;;;5.40;;
7316;SDS011;3699;51.462;6.696;2022-07-29T08:54:27;14.47;;;6.03;;
7316;SDS011;3699;51.462;6.696;2022-07-29T08:56:55;7.70;;;5.60;;
7316;SDS011;3699;51.462;6.696;2022-07-29T08:59:24;7.93;;;5.57;;
7316;SDS011;3699;51.462;6.696;2022-07-29T09:01:54;11.80;;;5.93;;
7316;SDS011;3699;51.462;6.696;2022-07-29T09:04:24;9.47;;;5.73;;
7316;SDS011;3699;51.462;6.696;2022-07-29T09:06:55;10.53;;;6.00;;
7316;SDS011;3699;51.462;6.696;2022-07-29T09:09:25;8.73;;;6.17;;
7316;SDS011;3699;51.462;6.696;2022-07-29T09:11:52;11.20;;;6.17;;
7316;SDS011;3699;51.462;6.696;2022-07-29T09:14:20;8.73;;;5.47;;
7316;SDS011;3699;51.462;6.696;2022-07-29T09:16:48;10.83;;;5.50;;
7316;SDS011;3699;51.462;6.696;2022-07-29T09:19:22;9.07;;;5.73;;
7316;SDS011;3699;51.462;6.696;2022-07-29T09:21:50;8.93;;;5.10;;
7316;SDS011;3699;51.462;6.696;2022-07-29T09:24:24;7.30;;;5.23;;
7316;SDS011;3699;51.462;6.696;2022-07-29T09:27:04;9.27;;;5.43;;
7316;SDS011;3699;51.462;6.696;2022-07-29T09:29:35;9.57;;;5.30;;
7316;SDS011;3699;51.462;6.696;2022-07-29T09:32:02;7.80;;;5.10;;
7316;SDS011;3699;51.462;6.696;2022-07-29T09:34:36;8.23;;;5.20;;
7316;SDS011;3699;51.462;6.696;2022-07-29T09:37:03;5.83;;;5.23;;
7316;SDS011;3699;51.462;6.696;2022-07-29T09:39:32;10.17;;;5.37;;
7316;SDS011;3699;51.462;6.696;2022-07-29T09:42:00;8.87;;;5.10;;
7316;SDS011;3699;51.462;6.696;2022-07-29T09:44:40;7.27;;;5.17;;
7316;SDS011;3699;51.462;6.696;2022-07-29T09:47:08;7.47;;;5.70;;
7316;SDS011;3699;51.462;6.696;2022-07-29T09:49:50;13.03;;;6.27;;
7316;SDS011;3699;51.462;6.696;2022-07-29T09:52:18;11.63;;;5.77;;
7316;SDS011;3699;51.462;6.696;2022-07-29T09:54:45;9.97;;;6.07;;
7316;SDS011;3699;51.462;6.696;2022-07-29T09:57:21;10.03;;;5.77;;
7316;SDS011;3699;51.462;6.696;2022-07-29T09:59:56;10.07;;;5.53;;
7316;SDS011;3699;51.462;6.696;2022-07-29T10:02:28;7.27;;;5.70;;
7316;SDS011;3699;51.462;6.696;2022-07-29T10:04:57;11.97;;;5.27;;
7316;SDS011;3699;51.462;6.696;2022-07-29T10:07:24;7.80;;;5.57;;
7316;SDS011;3699;51.462;6.696;2022-07-29T10:09:55;10.93;;;5.53;;
7316;SDS011;3699;51.462;6.696;2022-07-29T10:12:23;12.27;;;5.80;;
7316;SDS011;3699;51.462;6.696;2022-07-29T10:14:50;12.77;;;6.47;;
7316;SDS011;3699;51.462;6.696;2022-07-29T10:17:17;6.50;;;5.63;;
7316;SDS011;3699;51.462;6.696;2022-07-29T10:19:45;9.37;;;5.57;;
7316;SDS011;3699;51.462;6.696;2022-07-29T10:22:15;11.47;;;5.90;;
7316;SDS011;3699;51.462;6.696;2022-07-29T10:24:43;8.30;;;5.70;;
7316;SDS011;3699;51.462;6.696;2022-07-29T10:27:10;11.47;;;5.40;;
7316;SDS011;3699;51.462;6.696;2022-07-29T10:29:37;6.53;;;5.53;;
7316;SDS011;3699;51.462;6.696;2022-07-29T10:32:08;11.27;;;5.20;;
7316;SDS011;3699;51.462;6.696;2022-07-29T10:35:11;8.63;;;5.30;;
7316;SDS011;3699;51.462;6.696;2022-07-29T10:37:51;5.60;;;5.00;;
7316;SDS011;3699;51.462;6.696;2022-07-29T10:40:32;6.00;;;4.83;;
7316;SDS011;3699;51.462;6.696;2022-07-29T10:43:22;6.87;;;4.53;;
7316;SDS011;3699;51.462;6.696;2022-07-29T10:45:55;8.73;;;5.37;;
7316;SDS011;3699;51.462;6.696;2022-07-29T10:48:23;7.33;;;4.63;;
7316;SDS011;3699;51.462;6.696;2022-07-29T10:50:57;6.27;;;4.43;;
7316;SDS011;3699;51.462;6.696;2022-07-29T10:53:45;4.40;;;4.00;;
7316;SDS011;3699;51.462;6.696;2022-07-29T10:56:22;7.93;;;4.40;;
7316;SDS011;3699;51.462;6.696;2022-07-29T11:01:52;7.20;;;3.43;;
7316;SDS011;3699;51.462;6.696;2022-07-29T11:07:26;5.67;;;3.70;;
7316;SDS011;3699;51.462;6.696;2022-07-29T11:12:48;8.33;;;3.83;;
7316;SDS011;3699;51.462;6.696;2022-07-29T11:15:16;7.77;;;3.87;;
7316;SDS011;3699;51.462;6.696;2022-07-29T11:20:35;6.27;;;4.13;;
7316;SDS011;3699;51.462;6.696;2022-07-29T11:28:50;7.07;;;3.83;;
7316;SDS011;3699;51.462;6.696;2022-07-29T11:31:31;5.90;;;3.80;;
7316;SDS011;3699;51.462;6.696;2022-07-29T11:39:44;8.93;;;3.50;;
7316;SDS011;3699;51.462;6.696;2022-07-29T11:45:17;6.63;;;4.07;;
7316;SDS011;3699;51.462;6.696;2022-07-29T11:47:52;5.03;;;3.30;;
7316;SDS011;3699;51.462;6.696;2022-07-29T11:50:27;7.83;;;4.30;;
7316;SDS011;3699;51.462;6.696;2022-07-29T11:52:57;4.90;;;3.33;;
7316;SDS011;3699;51.462;6.696;2022-07-29T11:55:25;6.63;;;3.37;;
7316;SDS011;3699;51.462;6.696;2022-07-29T11:57:55;4.67;;;3.30;;
7316;SDS011;3699;51.462;6.696;2022-07-29T12:00:25;4.83;;;3.53;;
7316;SDS011;3699;51.462;6.696;2022-07-29T12:02:54;5.67;;;3.17;;
7316;SDS011;3699;51.462;6.696;2022-07-29T12:05:29;5.43;;;3.00;;
7316;SDS011;3699;51.462;6.696;2022-07-29T12:08:07;3.27;;;2.80;;
7316;SDS011;3699;51.462;6.696;2022-07-29T12:10:39;5.40;;;3.83;;
7316;SDS011;3699;51.462;6.696;2022-07-29T12:13:08;5.57;;;3.13;;
7316;SDS011;3699;51.462;6.696;2022-07-29T12:15:36;9.03;;;3.60;;
7316;SDS011;3699;51.462;6.696;2022-07-29T12:18:13;6.27;;;3.33;;
7316;SDS011;3699;51.462;6.696;2022-07-29T12:20:42;4.30;;;3.70;;
7316;SDS011;3699;51.462;6.696;2022-07-29T12:23:10;5.43;;;2.80;;
7316;SDS011;3699;51.462;6.696;2022-07-29T12:25:42;5.33;;;3.10;;
7316;SDS011;3699;51.462;6.696;2022-07-29T12:28:12;8.63;;;3.47;;
7316;SDS011;3699;51.462;6.696;2022-07-29T12:30:43;5.60;;;3.00;;
7316;SDS011;3699;51.462;6.696;2022-07-29T12:33:15;6.80;;;3.70;;
7316;SDS011;3699;51.462;6.696;2022-07-29T12:35:45;3.60;;;2.70;;
7316;SDS011;3699;51.462;6.696;2022-07-29T12:38:14;5.57;;;2.80;;
7316;SDS011;3699;51.462;6.696;2022-07-29T12:40:42;5.10;;;2.90;;
7316;SDS011;3699;51.462;6.696;2022-07-29T12:43:12;5.63;;;2.57;;
7316;SDS011;3699;51.462;6.696;2022-07-29T12:45:41;4.33;;;2.57;;
7316;SDS011;3699;51.462;6.696;2022-07-29T12:48:09;7.17;;;3.10;;
7316;SDS011;3699;51.462;6.696;2022-07-29T12:50:36;5.43;;;3.10;;
7316;SDS011;3699;51.462;6.696;2022-07-29T12:53:17;6.70;;;3.23;;
7316;SDS011;3699;51.462;6.696;2022-07-29T12:55:45;3.67;;;2.90;;
7316;SDS011;3699;51.462;6.696;2022-07-29T12:58:26;3.07;;;2.57;;
7316;SDS011;3699;51.462;6.696;2022-07-29T13:00:59;4.80;;;3.00;;
7316;SDS011;3699;51.462;6.696;2022-07-29T13:03:27;5.73;;;3.13;;
7316;SDS011;3699;51.462;6.696;2022-07-29T13:05:54;4.00;;;2.90;;
7316;SDS011;3699;51.462;6.696;2022-07-29T13:08:21;3.90;;;2.60;;
7316;SDS011;3699;51.462;6.696;2022-07-29T13:10:48;2.73;;;2.53;;
7316;SDS011;3699;51.462;6.696;2022-07-29T13:13:15;5.17;;;2.87;;
7316;SDS011;3699;51.462;6.696;2022-07-29T13:15:44;3.50;;;2.50;;
7316;SDS011;3699;51.462;6.696;2022-07-29T13:18:28;5.13;;;2.97;;
7316;SDS011;3699;51.462;6.696;2022-07-29T13:20:56;5.00;;;3.30;;
7316;SDS011;3699;51.462;6.696;2022-07-29T13:23:24;7.33;;;3.30;;
7316;SDS011;3699;51.462;6.696;2022-07-29T13:25:51;4.53;;;3.73;;
7316;SDS011;3699;51.462;6.696;2022-07-29T13:28:18;4.23;;;3.30;;
7316;SDS011;3699;51.462;6.696;2022-07-29T13:30:48;5.67;;;3.30;;
7316;SDS011;3699;51.462;6.696;2022-07-29T13:33:14;5.90;;;3.77;;
7316;SDS011;3699;51.462;6.696;2022-07-29T13:35:41;4.97;;;3.50;;
7316;SDS011;3699;51.462;6.696;2022-07-29T13:38:08;6.23;;;3.50;;
7316;SDS011;3699;51.462;6.696;2022-07-29T13:40:36;4.57;;;3.00;;
7316;SDS011;3699;51.462;6.696;2022-07-29T13:43:02;3.70;;;3.10;;
7316;SDS011;3699;51.462;6.696;2022-07-29T13:45:30;4.23;;;3.83;;
7316;SDS011;3699;51.462;6.696;2022-07-29T13:47:58;4.53;;;3.87;;
7316;SDS011;3699;51.462;6.696;2022-07-29T13:50:25;6.13;;;3.70;;
7316;SDS011;3699;51.462;6.696;2022-07-29T13:52:52;4.60;;;2.93;;
7316;SDS011;3699;51.462;6.696;2022-07-29T13:55:19;4.30;;;3.90;;
7316;SDS011;3699;51.462;6.696;2022-07-29T13:57:46;5.97;;;3.47;;
7316;SDS011;3699;51.462;6.696;2022-07-29T14:00:13;6.13;;;4.10;;
7316;SDS011;3699;51.462;6.696;2022-07-29T14:02:41;7.87;;;3.57;;
7316;SDS011;3699;51.462;6.696;2022-07-29T14:05:10;7.53;;;3.83;;
7316;SDS011;3699;51.462;6.696;2022-07-29T14:07:37;5.33;;;3.40;;
7316;SDS011;3699;51.462;6.696;2022-07-29T14:10:05;8.70;;;3.80;;
7316;SDS011;3699;51.462;6.696;2022-07-29T14:12:32;7.57;;;4.30;;
7316;SDS011;3699;51.462;6.696;2022-07-29T14:14:59;6.87;;;3.30;;
7316;SDS011;3699;51.462;6.696;2022-07-29T14:17:26;6.93;;;3.80;;
7316;SDS011;3699;51.462;6.696;2022-07-29T14:19:55;3.67;;;2.90;;
7316;SDS011;3699;51.462;6.696;2022-07-29T14:22:23;5.63;;;3.60;;
7316;SDS011;3699;51.462;6.696;2022-07-29T14:24:50;4.73;;;3.47;;
7316;SDS011;3699;51.462;6.696;2022-07-29T14:27:17;5.93;;;3.10;;
7316;SDS011;3699;51.462;6.696;2022-07-29T14:29:45;5.73;;;2.67;;
7316;SDS011;3699;51.462;6.696;2022-07-29T14:32:11;4.53;;;2.90;;
7316;SDS011;3699;51.462;6.696;2022-07-29T14:34:40;3.47;;;2.40;;
7316;SDS011;3699;51.462;6.696;2022-07-29T14:37:07;3.67;;;3.30;;
7316;SDS011;3699;51.462;6.696;2022-07-29T14:39:36;5.63;;;2.77;;
7316;SDS011;3699;51.462;6.696;2022-07-29T14:42:02;5.30;;;2.83;;
7316;SDS011;3699;51.462;6.696;2022-07-29T14:44:30;5.13;;;2.87;;
7316;SDS011;3699;51.462;6.696;2022-07-29T14:46:57;8.60;;;3.27;;
7316;SDS011;3699;51.462;6.696;2022-07-29T14:49:24;5.80;;;3.20;;
7316;SDS011;3699;51.462;6.696;2022-07-29T14:51:51;6.67;;;3.20;;
7316;SDS011;3699;51.462;6.696;2022-07-29T14:54:18;5.53;;;3.00;;
7316;SDS011;3699;51.462;6.696;2022-07-29T14:56:46;7.63;;;2.90;;
7316;SDS011;3699;51.462;6.696;2022-07-29T14:59:16;3.77;;;2.80;;
7316;SDS011;3699;51.462;6.696;2022-07-29T15:01:43;6.17;;;3.17;;
7316;SDS011;3699;51.462;6.696;2022-07-29T15:04:10;3.67;;;2.67;;
7316;SDS011;3699;51.462;6.696;2022-07-29T15:06:37;5.57;;;2.63;;
7316;SDS011;3699;51.462;6.696;2022-07-29T15:09:04;9.00;;;3.17;;
7316;SDS011;3699;51.462;6.696;2022-07-29T15:11:31;3.43;;;2.43;;
7316;SDS011;3699;51.462;6.696;2022-07-29T15:13:59;2.83;;;2.43;;
7316;SDS011;3699;51.462;6.696;2022-07-29T15:16:26;4.87;;;2.37;;
7316;SDS011;3699;51.462;6.696;2022-07-29T15:18:53;5.53;;;2.80;;
7316;SDS011;3699;51.462;6.696;2022-07-29T15:21:22;4.67;;;2.87;;
7316;SDS011;3699;51.462;6.696;2022-07-29T15:23:49;5.40;;;2.87;;
7316;SDS011;3699;51.462;6.696;2022-07-29T15:26:16;4.70;;;2.83;;
7316;SDS011;3699;51.462;6.696;2022-07-29T15:28:44;3.70;;;3.30;;
7316;SDS011;3699;51.462;6.696;2022-07-29T15:31:12;10.63;;;3.57;;
7316;SDS011;3699;51.462;6.696;2022-07-29T15:33:39;10.07;;;3.47;;
7316;SDS011;3699;51.462;6.696;2022-07-29T15:36:06;5.53;;;3.70;;
7316;SDS011;3699;51.462;6.696;2022-07-29T15:38:33;6.43;;;3.27;;
7316;SDS011;3699;51.462;6.696;2022-07-29T15:41:00;4.73;;;3.50;;
7316;SDS011;3699;51.462;6.696;2022-07-29T15:43:27;5.50;;;3.43;;
7316;SDS011;3699;51.462;6.696;2022-07-29T15:45:54;4.13;;;3.20;;
7316;SDS011;3699;51.462;6.696;2022-07-29T15:48:39;9.03;;;4.57;;
7316;SDS011;3699;51.462;6.696;2022-07-29T15:51:06;5.67;;;3.13;;
7316;SDS011;3699;51.462;6.696;2022-07-29T15:53:33;7.00;;;3.73;;